sensor_id;sensor_type;location;lat;lon;timestamp;temperature;humidity
38359;DHT22;42072;48.044;14.416;2023-11-21T00:00:17;6.00;94.50
38359;DHT22;42072;48.044;14.416;2023-11-21T00:02:44;6.10;49.70
38359;DHT22;42072;48.044;14.416;2023-11-21T00:05:13;6.10;12.90
38359;DHT22;42072;48.044;14.416;2023-11-21T00:07:43;6.20;4.40
38359;DHT22;42072;48.044;14.416;2023-11-21T00:10:11;6.20;1.00
38359;DHT22;42072;48.044;14.416;2023-11-21T00:12:41;6.20;1.00
38359;DHT22;42072;48.044;14.416;2023-11-21T00:15:09;6.10;1.00
38359;DHT22;42072;48.044;14.416;2023-11-21T00:17:37;6.10;1.00
38359;DHT22;42072;48.044;14.416;2023-11-21T00:20:06;6.10;1.00
38359;DHT22;42072;48.044;14.416;2023-11-21T00:22:34;6.10;1.00
38359;DHT22;42072;48.044;14.416;2023-11-21T00:25:02;6.00;1.00
38359;DHT22;42072;48.044;14.416;2023-11-21T00:27:30;6.00;1.00
38359;DHT22;42072;48.044;14.416;2023-11-21T00:29:58;6.00;1.00
38359;DHT22;42072;48.044;14.416;2023-11-21T00:32:25;6.10;4.90
38359;DHT22;42072;48.044;14.416;2023-11-21T00:34:52;6.10;3.00
38359;DHT22;42072;48.044;14.416;2023-11-21T00:37:18;6.10;1.00
38359;DHT22;42072;48.044;14.416;2023-11-21T00:39:46;6.10;1.00
38359;DHT22;42072;48.044;14.416;2023-11-21T00:42:13;6.20;1.00
38359;DHT22;42072;48.044;14.416;2023-11-21T00:44:40;6.20;1.00
38359;DHT22;42072;48.044;14.416;2023-11-21T00:47:07;6.10;1.00
38359;DHT22;42072;48.044;14.416;2023-11-21T00:49:34;6.20;1.00
38359;DHT22;42072;48.044;14.416;2023-11-21T00:52:01;6.20;1.00
38359;DHT22;42072;48.044;14.416;2023-11-21T00:54:29;6.10;1.00
38359;DHT22;42072;48.044;14.416;2023-11-21T00:57:01;6.10;1.00
38359;DHT22;42072;48.044;14.416;2023-11-21T00:59:28;6.10;1.90
38359;DHT22;42072;48.044;14.416;2023-11-21T01:01:55;6.10;11.00
38359;DHT22;42072;48.044;14.416;2023-11-21T01:04:22;6.00;16.90
38359;DHT22;42072;48.044;14.416;2023-11-21T01:06:49;6.00;22.60
38359;DHT22;42072;48.044;14.416;2023-11-21T01:09:16;5.90;31.60
38359;DHT22;42072;48.044;14.416;2023-11-21T01:11:45;5.90;49.70
38359;DHT22;42072;48.044;14.416;2023-11-21T01:14:13;5.90;72.40
38359;DHT22;42072;48.044;14.416;2023-11-21T01:16:40;5.90;86.50
38359;DHT22;42072;48.044;14.416;2023-11-21T01:19:08;5.90;88.40
38359;DHT22;42072;48.044;14.416;2023-11-21T01:21:36;5.80;90.90
38359;DHT22;42072;48.044;14.416;2023-11-21T01:24:03;5.70;87.10
38359;DHT22;42072;48.044;14.416;2023-11-21T01:26:32;5.70;98.40
38359;DHT22;42072;48.044;14.416;2023-11-21T01:28:59;5.70;99.90
38359;DHT22;42072;48.044;14.416;2023-11-21T01:31:26;5.60;99.90
38359;DHT22;42072;48.044;14.416;2023-11-21T01:33:56;5.50;99.90
38359;DHT22;42072;48.044;14.416;2023-11-21T01:36:29;5.40;99.90
38359;DHT22;42072;48.044;14.416;2023-11-21T01:38:56;5.30;99.90
38359;DHT22;42072;48.044;14.416;2023-11-21T01:41:26;5.20;99.90
38359;DHT22;42072;48.044;14.416;2023-11-21T01:43:54;5.00;99.90
38359;DHT22;42072;48.044;14.416;2023-11-21T01:46:22;4.90;99.90
38359;DHT22;42072;48.044;14.416;2023-11-21T01:48:49;4.90;99.90
38359;DHT22;42072;48.044;14.416;2023-11-21T01:51:17;4.80;99.90
38359;DHT22;42072;48.044;14.416;2023-11-21T01:53:45;4.70;99.90
38359;DHT22;42072;48.044;14.416;2023-11-21T01:56:13;4.50;99.90
38359;DHT22;42072;48.044;14.416;2023-11-21T01:58:41;4.40;99.90
38359;DHT22;42072;48.044;14.416;2023-11-21T02:01:10;4.30;99.90
38359;DHT22;42072;48.044;14.416;2023-11-21T02:03:37;4.20;99.90
38359;DHT22;42072;48.044;14.416;2023-11-21T02:06:05;4.20;99.90
38359;DHT22;42072;48.044;14.416;2023-11-21T02:08:32;4.20;99.90
38359;DHT22;42072;48.044;14.416;2023-11-21T02:10:59;4.20;99.90
38359;DHT22;42072;48.044;14.416;2023-11-21T02:13:26;4.20;99.90
38359;DHT22;42072;48.044;14.416;2023-11-21T02:15:54;4.20;99.90
38359;DHT22;42072;48.044;14.416;2023-11-21T02:18:21;4.30;99.90
38359;DHT22;42072;48.044;14.416;2023-11-21T02:20:49;4.40;1.00
38359;DHT22;42072;48.044;14.416;2023-11-21T02:23:16;4.50;1.00
38359;DHT22;42072;48.044;14.416;2023-11-21T02:25:44;4.50;1.00
38359;DHT22;42072;48.044;14.416;2023-11-21T02:28:12;4.50;1.00
38359;DHT22;42072;48.044;14.416;2023-11-21T02:30:42;4.50;1.00
38359;DHT22;42072;48.044;14.416;2023-11-21T02:33:10;4.60;1.00
38359;DHT22;42072;48.044;14.416;2023-11-21T02:35:39;4.60;1.00
38359;DHT22;42072;48.044;14.416;2023-11-21T02:38:06;4.60;1.00
38359;DHT22;42072;48.044;14.416;2023-11-21T02:40:33;4.60;1.00
38359;DHT22;42072;48.044;14.416;2023-11-21T02:43:00;4.70;1.00
38359;DHT22;42072;48.044;14.416;2023-11-21T02:45:28;4.60;1.00
38359;DHT22;42072;48.044;14.416;2023-11-21T02:47:55;4.50;1.00
38359;DHT22;42072;48.044;14.416;2023-11-21T02:50:25;4.50;1.00
38359;DHT22;42072;48.044;14.416;2023-11-21T02:52:54;4.40;1.00
38359;DHT22;42072;48.044;14.416;2023-11-21T02:55:21;4.40;1.00
38359;DHT22;42072;48.044;14.416;2023-11-21T02:57:48;4.40;1.00
38359;DHT22;42072;48.044;14.416;2023-11-21T03:00:15;4.40;1.00
38359;DHT22;42072;48.044;14.416;2023-11-21T03:02:43;4.50;1.00
38359;DHT22;42072;48.044;14.416;2023-11-21T03:05:11;4.60;1.00
38359;DHT22;42072;48.044;14.416;2023-11-21T03:07:38;4.70;1.00
38359;DHT22;42072;48.044;14.416;2023-11-21T03:10:06;4.70;1.00
38359;DHT22;42072;48.044;14.416;2023-11-21T03:12:37;4.80;1.00
38359;DHT22;42072;48.044;14.416;2023-11-21T03:15:07;4.90;1.00
38359;DHT22;42072;48.044;14.416;2023-11-21T03:17:38;4.90;1.00
38359;DHT22;42072;48.044;14.416;2023-11-21T03:20:05;4.90;1.00
38359;DHT22;42072;48.044;14.416;2023-11-21T03:22:33;5.00;1.00
38359;DHT22;42072;48.044;14.416;2023-11-21T03:25:00;5.10;1.00
38359;DHT22;42072;48.044;14.416;2023-11-21T03:27:27;5.10;1.00
38359;DHT22;42072;48.044;14.416;2023-11-21T03:29:54;5.20;1.00
38359;DHT22;42072;48.044;14.416;2023-11-21T03:32:22;5.10;1.00
38359;DHT22;42072;48.044;14.416;2023-11-21T03:34:54;5.20;1.00
38359;DHT22;42072;48.044;14.416;2023-11-21T03:37:26;5.20;1.00
38359;DHT22;42072;48.044;14.416;2023-11-21T03:39:55;5.20;1.00
38359;DHT22;42072;48.044;14.416;2023-11-21T03:42:24;5.30;1.00
38359;DHT22;42072;48.044;14.416;2023-11-21T03:44:53;5.30;1.00
38359;DHT22;42072;48.044;14.416;2023-11-21T03:47:20;5.30;1.00
38359;DHT22;42072;48.044;14.416;2023-11-21T03:49:48;5.20;1.00
38359;DHT22;42072;48.044;14.416;2023-11-21T03:52:15;5.30;1.00
38359;DHT22;42072;48.044;14.416;2023-11-21T03:54:43;5.30;1.00
38359;DHT22;42072;48.044;14.416;2023-11-21T03:57:11;5.30;1.00
38359;DHT22;42072;48.044;14.416;2023-11-21T03:59:42;5.30;1.00
38359;DHT22;42072;48.044;14.416;2023-11-21T04:02:09;5.30;1.00
38359;DHT22;42072;48.044;14.416;2023-11-21T04:04:36;5.40;1.00
38359;DHT22;42072;48.044;14.416;2023-11-21T04:07:04;5.40;1.00
38359;DHT22;42072;48.044;14.416;2023-11-21T04:09:31;5.40;1.00
38359;DHT22;42072;48.044;14.416;2023-11-21T04:11:59;5.40;1.00
38359;DHT22;42072;48.044;14.416;2023-11-21T04:14:26;5.50;1.00
38359;DHT22;42072;48.044;14.416;2023-11-21T04:16:53;5.50;1.00
38359;DHT22;42072;48.044;14.416;2023-11-21T04:19:20;5.50;99.90
38359;DHT22;42072;48.044;14.416;2023-11-21T04:21:48;5.50;99.90
38359;DHT22;42072;48.044;14.416;2023-11-21T04:24:15;5.50;99.90
38359;DHT22;42072;48.044;14.416;2023-11-21T04:26:45;5.40;99.90
38359;DHT22;42072;48.044;14.416;2023-11-21T04:29:13;5.40;99.90
38359;DHT22;42072;48.044;14.416;2023-11-21T04:31:40;5.40;99.90
38359;DHT22;42072;48.044;14.416;2023-11-21T04:34:08;5.40;99.90
38359;DHT22;42072;48.044;14.416;2023-11-21T04:36:35;5.30;99.90
38359;DHT22;42072;48.044;14.416;2023-11-21T04:39:02;5.40;99.90
38359;DHT22;42072;48.044;14.416;2023-11-21T04:41:29;5.30;99.90
38359;DHT22;42072;48.044;14.416;2023-11-21T04:43:59;5.30;99.90
38359;DHT22;42072;48.044;14.416;2023-11-21T04:46:28;5.30;99.90
38359;DHT22;42072;48.044;14.416;2023-11-21T04:48:55;5.30;99.90
38359;DHT22;42072;48.044;14.416;2023-11-21T04:51:22;5.40;99.90
38359;DHT22;42072;48.044;14.416;2023-11-21T04:53:49;5.40;99.90
38359;DHT22;42072;48.044;14.416;2023-11-21T04:56:16;5.40;99.90
38359;DHT22;42072;48.044;14.416;2023-11-21T04:58:43;5.40;99.90
38359;DHT22;42072;48.044;14.416;2023-11-21T05:01:11;5.50;99.90
38359;DHT22;42072;48.044;14.416;2023-11-21T05:03:38;5.40;99.90
38359;DHT22;42072;48.044;14.416;2023-11-21T05:06:06;5.30;99.90
38359;DHT22;42072;48.044;14.416;2023-11-21T05:08:33;5.10;99.90
38359;DHT22;42072;48.044;14.416;2023-11-21T05:11:00;5.00;99.90
38359;DHT22;42072;48.044;14.416;2023-11-21T05:13:27;4.80;99.90
38359;DHT22;42072;48.044;14.416;2023-11-21T05:15:55;4.80;99.90
38359;DHT22;42072;48.044;14.416;2023-11-21T05:18:25;4.70;99.90
38359;DHT22;42072;48.044;14.416;2023-11-21T05:20:56;4.70;99.90
38359;DHT22;42072;48.044;14.416;2023-11-21T05:23:24;4.70;99.90
38359;DHT22;42072;48.044;14.416;2023-11-21T05:25:51;4.80;99.90
38359;DHT22;42072;48.044;14.416;2023-11-21T05:28:18;4.80;99.90
38359;DHT22;42072;48.044;14.416;2023-11-21T05:30:46;4.80;99.90
38359;DHT22;42072;48.044;14.416;2023-11-21T05:33:13;4.90;1.00
38359;DHT22;42072;48.044;14.416;2023-11-21T05:35:40;5.00;1.00
38359;DHT22;42072;48.044;14.416;2023-11-21T05:38:07;5.00;1.00
38359;DHT22;42072;48.044;14.416;2023-11-21T05:40:34;5.10;1.00
38359;DHT22;42072;48.044;14.416;2023-11-21T05:43:01;5.20;1.00
38359;DHT22;42072;48.044;14.416;2023-11-21T05:45:29;5.30;1.00
38359;DHT22;42072;48.044;14.416;2023-11-21T05:47:57;5.30;1.00
38359;DHT22;42072;48.044;14.416;2023-11-21T05:50:24;5.30;1.00
38359;DHT22;42072;48.044;14.416;2023-11-21T05:52:51;5.40;1.00
38359;DHT22;42072;48.044;14.416;2023-11-21T05:55:18;5.40;1.00
38359;DHT22;42072;48.044;14.416;2023-11-21T05:57:47;5.50;1.00
38359;DHT22;42072;48.044;14.416;2023-11-21T06:00:15;5.50;1.00
38359;DHT22;42072;48.044;14.416;2023-11-21T06:02:53;5.50;99.90
38359;DHT22;42072;48.044;14.416;2023-11-21T06:05:22;5.60;99.90
38359;DHT22;42072;48.044;14.416;2023-11-21T06:07:53;5.70;99.90
38359;DHT22;42072;48.044;14.416;2023-11-21T06:10:22;5.70;99.90
38359;DHT22;42072;48.044;14.416;2023-11-21T06:12:51;5.80;99.90
38359;DHT22;42072;48.044;14.416;2023-11-21T06:15:19;5.80;99.90
38359;DHT22;42072;48.044;14.416;2023-11-21T06:17:47;5.90;99.90
38359;DHT22;42072;48.044;14.416;2023-11-21T06:20:19;5.90;99.90
38359;DHT22;42072;48.044;14.416;2023-11-21T06:22:47;5.90;99.90
38359;DHT22;42072;48.044;14.416;2023-11-21T06:25:14;5.90;99.90
38359;DHT22;42072;48.044;14.416;2023-11-21T06:27:42;5.90;99.90
38359;DHT22;42072;48.044;14.416;2023-11-21T06:30:11;5.90;99.90
38359;DHT22;42072;48.044;14.416;2023-11-21T06:32:41;6.00;99.90
38359;DHT22;42072;48.044;14.416;2023-11-21T06:35:08;6.00;99.90
38359;DHT22;42072;48.044;14.416;2023-11-21T06:37:37;6.00;99.90
38359;DHT22;42072;48.044;14.416;2023-11-21T06:40:05;6.00;99.90
38359;DHT22;42072;48.044;14.416;2023-11-21T06:42:33;6.10;99.90
38359;DHT22;42072;48.044;14.416;2023-11-21T06:45:05;6.10;99.90
38359;DHT22;42072;48.044;14.416;2023-11-21T06:47:32;6.20;99.90
38359;DHT22;42072;48.044;14.416;2023-11-21T06:50:00;6.20;99.90
38359;DHT22;42072;48.044;14.416;2023-11-21T06:52:27;6.20;99.90
38359;DHT22;42072;48.044;14.416;2023-11-21T06:54:54;6.20;99.90
38359;DHT22;42072;48.044;14.416;2023-11-21T06:57:24;6.20;99.90
38359;DHT22;42072;48.044;14.416;2023-11-21T06:59:51;6.20;99.90
38359;DHT22;42072;48.044;14.416;2023-11-21T07:02:18;6.30;99.90
38359;DHT22;42072;48.044;14.416;2023-11-21T07:04:46;6.30;99.90
38359;DHT22;42072;48.044;14.416;2023-11-21T07:07:13;6.40;99.90
38359;DHT22;42072;48.044;14.416;2023-11-21T07:09:40;6.40;99.90
38359;DHT22;42072;48.044;14.416;2023-11-21T07:12:07;6.50;99.90
38359;DHT22;42072;48.044;14.416;2023-11-21T07:14:34;6.50;99.90
38359;DHT22;42072;48.044;14.416;2023-11-21T07:17:02;6.50;99.90
38359;DHT22;42072;48.044;14.416;2023-11-21T07:19:29;6.50;99.90
38359;DHT22;42072;48.044;14.416;2023-11-21T07:21:56;6.50;99.90
38359;DHT22;42072;48.044;14.416;2023-11-21T07:24:23;6.50;99.90
38359;DHT22;42072;48.044;14.416;2023-11-21T07:26:53;6.50;99.90
38359;DHT22;42072;48.044;14.416;2023-11-21T07:29:23;6.50;99.90
38359;DHT22;42072;48.044;14.416;2023-11-21T07:31:52;6.60;99.90
38359;DHT22;42072;48.044;14.416;2023-11-21T07:34:20;6.60;99.90
38359;DHT22;42072;48.044;14.416;2023-11-21T07:36:47;6.60;99.90
38359;DHT22;42072;48.044;14.416;2023-11-21T07:39:14;6.60;99.90
38359;DHT22;42072;48.044;14.416;2023-11-21T07:41:43;6.60;99.90
38359;DHT22;42072;48.044;14.416;2023-11-21T07:44:16;6.60;99.90
38359;DHT22;42072;48.044;14.416;2023-11-21T07:46:44;6.60;99.90
38359;DHT22;42072;48.044;14.416;2023-11-21T07:49:11;6.60;99.90
38359;DHT22;42072;48.044;14.416;2023-11-21T07:51:42;6.60;99.90
38359;DHT22;42072;48.044;14.416;2023-11-21T07:54:09;6.70;99.90
38359;DHT22;42072;48.044;14.416;2023-11-21T07:56:36;6.70;99.90
38359;DHT22;42072;48.044;14.416;2023-11-21T07:59:04;6.80;99.90
38359;DHT22;42072;48.044;14.416;2023-11-21T08:01:31;6.90;99.90
38359;DHT22;42072;48.044;14.416;2023-11-21T08:03:58;7.00;99.90
38359;DHT22;42072;48.044;14.416;2023-11-21T08:06:31;7.10;99.90
38359;DHT22;42072;48.044;14.416;2023-11-21T08:08:58;7.30;99.90
38359;DHT22;42072;48.044;14.416;2023-11-21T08:11:25;7.40;99.90
38359;DHT22;42072;48.044;14.416;2023-11-21T08:13:56;7.60;99.90
38359;DHT22;42072;48.044;14.416;2023-11-21T08:16:24;7.70;99.90
38359;DHT22;42072;48.044;14.416;2023-11-21T08:18:51;7.80;99.90
38359;DHT22;42072;48.044;14.416;2023-11-21T08:21:18;7.90;99.90
38359;DHT22;42072;48.044;14.416;2023-11-21T08:23:46;8.00;88.50
38359;DHT22;42072;48.044;14.416;2023-11-21T08:26:15;8.10;48.10
38359;DHT22;42072;48.044;14.416;2023-11-21T08:28:42;8.20;23.80
38359;DHT22;42072;48.044;14.416;2023-11-21T08:31:10;8.40;2.90
38359;DHT22;42072;48.044;14.416;2023-11-21T08:33:39;8.60;1.00
38359;DHT22;42072;48.044;14.416;2023-11-21T08:36:09;8.90;1.00
38359;DHT22;42072;48.044;14.416;2023-11-21T08:38:39;9.20;1.00
38359;DHT22;42072;48.044;14.416;2023-11-21T08:41:06;9.60;1.00
38359;DHT22;42072;48.044;14.416;2023-11-21T08:43:37;9.80;99.90
38359;DHT22;42072;48.044;14.416;2023-11-21T08:46:06;9.90;99.90
38359;DHT22;42072;48.044;14.416;2023-11-21T08:48:35;9.90;99.90
38359;DHT22;42072;48.044;14.416;2023-11-21T08:51:03;9.80;99.90
38359;DHT22;42072;48.044;14.416;2023-11-21T08:53:31;9.70;99.90
38359;DHT22;42072;48.044;14.416;2023-11-21T08:55:58;9.50;99.90
38359;DHT22;42072;48.044;14.416;2023-11-21T08:58:25;9.40;99.90
38359;DHT22;42072;48.044;14.416;2023-11-21T09:00:52;9.30;99.90
38359;DHT22;42072;48.044;14.416;2023-11-21T09:03:19;9.40;99.90
38359;DHT22;42072;48.044;14.416;2023-11-21T09:05:46;9.50;99.90
38359;DHT22;42072;48.044;14.416;2023-11-21T09:08:13;9.70;99.90
38359;DHT22;42072;48.044;14.416;2023-11-21T09:10:40;9.90;99.90
38359;DHT22;42072;48.044;14.416;2023-11-21T09:13:10;10.10;99.90
38359;DHT22;42072;48.044;14.416;2023-11-21T09:15:37;10.20;99.90
38359;DHT22;42072;48.044;14.416;2023-11-21T09:18:04;10.20;99.90
38359;DHT22;42072;48.044;14.416;2023-11-21T09:20:31;10.30;99.90
38359;DHT22;42072;48.044;14.416;2023-11-21T09:22:58;10.50;99.90
38359;DHT22;42072;48.044;14.416;2023-11-21T09:25:26;10.60;99.90
38359;DHT22;42072;48.044;14.416;2023-11-21T09:27:53;10.60;99.90
38359;DHT22;42072;48.044;14.416;2023-11-21T09:30:20;10.60;95.90
38359;DHT22;42072;48.044;14.416;2023-11-21T09:32:47;10.70;99.40
38359;DHT22;42072;48.044;14.416;2023-11-21T09:35:14;10.80;92.40
38359;DHT22;42072;48.044;14.416;2023-11-21T09:37:42;10.70;80.80
38359;DHT22;42072;48.044;14.416;2023-11-21T09:40:11;10.60;72.20
38359;DHT22;42072;48.044;14.416;2023-11-21T09:42:48;10.50;89.40
38359;DHT22;42072;48.044;14.416;2023-11-21T09:45:29;10.60;99.90
38359;DHT22;42072;48.044;14.416;2023-11-21T09:47:58;10.60;73.70
38359;DHT22;42072;48.044;14.416;2023-11-21T09:50:26;10.50;85.10
38359;DHT22;42072;48.044;14.416;2023-11-21T09:55:34;10.20;96.20
38359;DHT22;42072;48.044;14.416;2023-11-21T09:58:03;10.20;99.90
38359;DHT22;42072;48.044;14.416;2023-11-21T10:00:31;10.10;99.90
38359;DHT22;42072;48.044;14.416;2023-11-21T10:02:59;10.10;99.90
38359;DHT22;42072;48.044;14.416;2023-11-21T10:05:26;10.10;99.90
38359;DHT22;42072;48.044;14.416;2023-11-21T10:07:56;10.10;99.90
38359;DHT22;42072;48.044;14.416;2023-11-21T10:10:24;10.00;99.90
38359;DHT22;42072;48.044;14.416;2023-11-21T10:12:54;10.10;99.90
38359;DHT22;42072;48.044;14.416;2023-11-21T10:15:22;10.10;99.90
38359;DHT22;42072;48.044;14.416;2023-11-21T10:17:49;10.30;99.90
38359;DHT22;42072;48.044;14.416;2023-11-21T10:20:16;10.40;93.00
38359;DHT22;42072;48.044;14.416;2023-11-21T10:22:43;10.50;49.70
38359;DHT22;42072;48.044;14.416;2023-11-21T10:25:10;10.60;37.60
38359;DHT22;42072;48.044;14.416;2023-11-21T10:27:38;10.60;33.90
38359;DHT22;42072;48.044;14.416;2023-11-21T10:30:09;10.60;12.20
38359;DHT22;42072;48.044;14.416;2023-11-21T10:32:39;10.50;1.00
38359;DHT22;42072;48.044;14.416;2023-11-21T10:35:08;10.40;1.90
38359;DHT22;42072;48.044;14.416;2023-11-21T10:37:37;10.30;10.80
38359;DHT22;42072;48.044;14.416;2023-11-21T10:40:07;10.10;41.80
38359;DHT22;42072;48.044;14.416;2023-11-21T10:42:39;9.80;94.70
38359;DHT22;42072;48.044;14.416;2023-11-21T10:45:07;9.60;99.90
38359;DHT22;42072;48.044;14.416;2023-11-21T10:47:41;9.40;99.90
38359;DHT22;42072;48.044;14.416;2023-11-21T10:50:08;9.40;99.90
38359;DHT22;42072;48.044;14.416;2023-11-21T10:52:41;9.40;99.90
38359;DHT22;42072;48.044;14.416;2023-11-21T10:55:19;9.20;99.90
38359;DHT22;42072;48.044;14.416;2023-11-21T10:57:48;9.10;99.90
38359;DHT22;42072;48.044;14.416;2023-11-21T11:00:16;9.00;99.90
38359;DHT22;42072;48.044;14.416;2023-11-21T11:02:43;9.00;99.90
38359;DHT22;42072;48.044;14.416;2023-11-21T11:05:10;9.00;99.90
38359;DHT22;42072;48.044;14.416;2023-11-21T11:07:38;8.80;99.90
38359;DHT22;42072;48.044;14.416;2023-11-21T11:10:08;8.80;99.90
38359;DHT22;42072;48.044;14.416;2023-11-21T11:12:41;8.70;99.90
38359;DHT22;42072;48.044;14.416;2023-11-21T11:15:08;8.70;99.90
38359;DHT22;42072;48.044;14.416;2023-11-21T11:17:38;8.60;99.90
38359;DHT22;42072;48.044;14.416;2023-11-21T11:20:08;8.60;99.90
38359;DHT22;42072;48.044;14.416;2023-11-21T11:22:46;8.50;99.90
38359;DHT22;42072;48.044;14.416;2023-11-21T11:25:35;8.50;99.90
38359;DHT22;42072;48.044;14.416;2023-11-21T11:28:15;8.50;1.00
38359;DHT22;42072;48.044;14.416;2023-11-21T11:38:48;8.60;99.90
38359;DHT22;42072;48.044;14.416;2023-11-21T11:41:25;8.70;99.90
38359;DHT22;42072;48.044;14.416;2023-11-21T11:43:54;8.70;99.90
38359;DHT22;42072;48.044;14.416;2023-11-21T11:46:39;8.70;99.90
38359;DHT22;42072;48.044;14.416;2023-11-21T11:49:08;8.70;99.90
38359;DHT22;42072;48.044;14.416;2023-11-21T11:51:35;8.70;99.90
38359;DHT22;42072;48.044;14.416;2023-11-21T11:54:05;8.70;99.90
38359;DHT22;42072;48.044;14.416;2023-11-21T11:56:33;8.80;99.90
38359;DHT22;42072;48.044;14.416;2023-11-21T11:59:03;8.70;1.00
38359;DHT22;42072;48.044;14.416;2023-11-21T12:01:32;8.80;99.90
38359;DHT22;42072;48.044;14.416;2023-11-21T12:06:44;8.80;99.90
38359;DHT22;42072;48.044;14.416;2023-11-21T12:09:21;8.80;1.00
38359;DHT22;42072;48.044;14.416;2023-11-21T12:11:48;8.80;1.00
38359;DHT22;42072;48.044;14.416;2023-11-21T12:14:15;8.90;99.90
38359;DHT22;42072;48.044;14.416;2023-11-21T12:16:43;9.00;99.90
38359;DHT22;42072;48.044;14.416;2023-11-21T12:19:11;9.00;99.90
38359;DHT22;42072;48.044;14.416;2023-11-21T12:21:38;9.10;99.90
38359;DHT22;42072;48.044;14.416;2023-11-21T12:24:07;9.10;99.90
38359;DHT22;42072;48.044;14.416;2023-11-21T12:26:41;9.20;99.90
38359;DHT22;42072;48.044;14.416;2023-11-21T12:29:08;9.30;99.90
38359;DHT22;42072;48.044;14.416;2023-11-21T12:31:35;9.40;99.90
38359;DHT22;42072;48.044;14.416;2023-11-21T12:34:03;9.40;99.90
38359;DHT22;42072;48.044;14.416;2023-11-21T12:36:31;9.30;99.90
38359;DHT22;42072;48.044;14.416;2023-11-21T12:38:58;9.30;99.90
38359;DHT22;42072;48.044;14.416;2023-11-21T12:41:25;9.30;99.90
38359;DHT22;42072;48.044;14.416;2023-11-21T12:43:52;9.30;99.90
38359;DHT22;42072;48.044;14.416;2023-11-21T12:46:19;9.30;99.90
38359;DHT22;42072;48.044;14.416;2023-11-21T12:48:47;9.30;99.90
38359;DHT22;42072;48.044;14.416;2023-11-21T12:51:14;9.30;99.90
38359;DHT22;42072;48.044;14.416;2023-11-21T12:53:42;9.20;99.90
38359;DHT22;42072;48.044;14.416;2023-11-21T12:58:37;9.40;99.90
38359;DHT22;42072;48.044;14.416;2023-11-21T13:01:06;9.40;99.90
38359;DHT22;42072;48.044;14.416;2023-11-21T13:03:38;9.50;99.90
38359;DHT22;42072;48.044;14.416;2023-11-21T13:06:07;9.60;99.90
38359;DHT22;42072;48.044;14.416;2023-11-21T13:08:34;9.60;99.90
38359;DHT22;42072;48.044;14.416;2023-11-21T13:11:01;9.60;99.90
38359;DHT22;42072;48.044;14.416;2023-11-21T13:13:29;9.60;99.90
38359;DHT22;42072;48.044;14.416;2023-11-21T13:15:58;9.60;99.90
38359;DHT22;42072;48.044;14.416;2023-11-21T13:18:32;9.50;99.90
38359;DHT22;42072;48.044;14.416;2023-11-21T13:21:00;9.50;99.90
38359;DHT22;42072;48.044;14.416;2023-11-21T13:23:34;9.50;99.90
38359;DHT22;42072;48.044;14.416;2023-11-21T13:26:01;9.60;99.90
38359;DHT22;42072;48.044;14.416;2023-11-21T13:28:33;9.50;99.90
38359;DHT22;42072;48.044;14.416;2023-11-21T13:31:01;9.40;99.90
38359;DHT22;42072;48.044;14.416;2023-11-21T13:33:48;9.40;99.90
38359;DHT22;42072;48.044;14.416;2023-11-21T13:36:23;9.30;99.90
38359;DHT22;42072;48.044;14.416;2023-11-21T13:38:50;9.30;99.90
38359;DHT22;42072;48.044;14.416;2023-11-21T13:41:19;9.20;99.90
38359;DHT22;42072;48.044;14.416;2023-11-21T13:43:46;9.20;99.90
38359;DHT22;42072;48.044;14.416;2023-11-21T13:46:24;9.20;99.90
38359;DHT22;42072;48.044;14.416;2023-11-21T13:48:52;9.10;99.90
38359;DHT22;42072;48.044;14.416;2023-11-21T13:51:23;9.10;99.90
38359;DHT22;42072;48.044;14.416;2023-11-21T13:54:12;9.10;99.90
38359;DHT22;42072;48.044;14.416;2023-11-21T13:56:40;9.00;99.90
38359;DHT22;42072;48.044;14.416;2023-11-21T13:59:08;9.00;99.90
38359;DHT22;42072;48.044;14.416;2023-11-21T14:02:10;8.90;99.90
38359;DHT22;42072;48.044;14.416;2023-11-21T14:04:55;8.90;99.90
38359;DHT22;42072;48.044;14.416;2023-11-21T14:07:25;8.90;99.90
38359;DHT22;42072;48.044;14.416;2023-11-21T14:10:04;8.90;99.90
38359;DHT22;42072;48.044;14.416;2023-11-21T14:12:34;8.90;99.90
38359;DHT22;42072;48.044;14.416;2023-11-21T14:15:05;8.90;99.90
38359;DHT22;42072;48.044;14.416;2023-11-21T14:17:36;8.80;99.90
38359;DHT22;42072;48.044;14.416;2023-11-21T14:20:06;8.80;99.90
38359;DHT22;42072;48.044;14.416;2023-11-21T14:22:41;8.80;99.90
38359;DHT22;42072;48.044;14.416;2023-11-21T14:25:09;8.70;99.90
38359;DHT22;42072;48.044;14.416;2023-11-21T14:27:38;8.70;99.90
38359;DHT22;42072;48.044;14.416;2023-11-21T14:30:06;8.70;99.90
38359;DHT22;42072;48.044;14.416;2023-11-21T14:32:33;8.60;99.90
38359;DHT22;42072;48.044;14.416;2023-11-21T14:35:00;8.60;1.00
38359;DHT22;42072;48.044;14.416;2023-11-21T14:37:27;8.60;1.00
38359;DHT22;42072;48.044;14.416;2023-11-21T14:39:55;8.60;1.00
38359;DHT22;42072;48.044;14.416;2023-11-21T14:42:22;8.50;1.00
38359;DHT22;42072;48.044;14.416;2023-11-21T14:44:52;8.50;1.00
38359;DHT22;42072;48.044;14.416;2023-11-21T14:47:19;8.50;1.00
38359;DHT22;42072;48.044;14.416;2023-11-21T14:49:52;8.40;1.00
38359;DHT22;42072;48.044;14.416;2023-11-21T14:52:20;8.40;1.00
38359;DHT22;42072;48.044;14.416;2023-11-21T14:55:00;8.30;1.00
38359;DHT22;42072;48.044;14.416;2023-11-21T14:57:46;8.30;1.00
38359;DHT22;42072;48.044;14.416;2023-11-21T15:00:17;8.30;1.00
38359;DHT22;42072;48.044;14.416;2023-11-21T15:03:00;8.30;1.00
38359;DHT22;42072;48.044;14.416;2023-11-21T15:05:27;8.20;1.00
38359;DHT22;42072;48.044;14.416;2023-11-21T15:07:55;8.20;1.00
38359;DHT22;42072;48.044;14.416;2023-11-21T15:10:24;8.20;1.00
38359;DHT22;42072;48.044;14.416;2023-11-21T15:13:07;8.10;1.00
38359;DHT22;42072;48.044;14.416;2023-11-21T15:15:37;8.10;1.00
38359;DHT22;42072;48.044;14.416;2023-11-21T15:18:06;8.10;1.00
38359;DHT22;42072;48.044;14.416;2023-11-21T15:20:33;8.00;1.00
38359;DHT22;42072;48.044;14.416;2023-11-21T15:23:00;8.00;3.80
38359;DHT22;42072;48.044;14.416;2023-11-21T15:25:29;8.00;14.60
38359;DHT22;42072;48.044;14.416;2023-11-21T15:27:56;7.90;23.50
38359;DHT22;42072;48.044;14.416;2023-11-21T15:30:23;7.90;40.10
38359;DHT22;42072;48.044;14.416;2023-11-21T15:32:52;8.00;70.20
38359;DHT22;42072;48.044;14.416;2023-11-21T15:35:20;8.10;85.80
38359;DHT22;42072;48.044;14.416;2023-11-21T15:37:47;8.10;66.60
38359;DHT22;42072;48.044;14.416;2023-11-21T15:40:14;8.00;54.30
38359;DHT22;42072;48.044;14.416;2023-11-21T15:42:43;8.00;55.20
38359;DHT22;42072;48.044;14.416;2023-11-21T15:45:11;7.90;64.20
38359;DHT22;42072;48.044;14.416;2023-11-21T15:47:38;7.90;69.90
38359;DHT22;42072;48.044;14.416;2023-11-21T15:50:06;7.80;79.60
38359;DHT22;42072;48.044;14.416;2023-11-21T15:52:37;7.80;90.60
38359;DHT22;42072;48.044;14.416;2023-11-21T15:55:26;7.80;98.10
38359;DHT22;42072;48.044;14.416;2023-11-21T15:57:53;7.80;99.90
38359;DHT22;42072;48.044;14.416;2023-11-21T16:00:20;7.80;99.90